Flight Track Log - Related Links

Times and Time Zones

All times are in EDT time to prevent confusion due to time zone crossing. See the SKW4729 flight status page for this flight to view local times or setup timezone preferences in your user account.

Time Position Orientation Groundspeed Altitude Reporting Facility
EDT Latitude Longitude Course Direction KTS MPH feet Rate Location/Type
Sat 02:42:04 PM 44.0603 -103.0700 251° West 165 190 3,600  Level Denver Center
Sat 02:42:47 PM 44.0800 -103.1175 300° West 204 235 5,000 1,922 Climbing Denver Center
Sat 02:43:47 PM 44.0864 -103.2042 276° West 252 290 6,900 1,782 Climbing Denver Center
Sat 02:44:28 PM 44.0672 -103.2567 243° Southwest 266 306 8,000 2,066 Climbing Denver Center
Sat 02:44:48 PM 44.0567 -103.3067 254° West 293 337 9,000 2,516 Climbing Denver Center
Sat 02:45:00 PM 43.8798 -103.6046 252° West  Level FlightAware Approximate
Sat 02:45:30 PM 44.0353 -103.3697 245° Southwest 283 326 10,600  Level Denver Center
Sat 02:45:49 PM 44.0275 -103.4003 251° West 283 326 10,800 1,065 Climbing Denver Center
Sat 02:46:00 PM 43.8457 -103.7463 245° Southwest  Level FlightAware Approximate
Sat 02:46:32 PM 44.0044 -103.4706 246° West 288 331 11,700  Level Denver Center
Sat 02:46:49 PM 43.9917 -103.5192 250° West 319 367 12,300 1,355 Climbing Denver Center
Sat 02:47:00 PM 43.7970 -103.8789 251° West  Level FlightAware Approximate
Sat 02:47:34 PM 43.9692 -103.5808 243° Southwest 307 353 13,100  Level Denver Center
Sat 02:47:50 PM 43.9631 -103.6328 261° West 336 387 13,500 1,548 Climbing Denver Center
Sat 02:48:36 PM 43.9444 -103.7211 254° West 343 395 14,700 1,444 Climbing Denver Center
Sat 02:49:38 PM 43.9114 -103.8383 249° West 342 394 16,100 1,364 Climbing Denver Center
Sat 02:51:10 PM 43.8667 -104.0436 253° West 343 395 18,200 1,258 Climbing Salt Lake Center
Sat 02:51:42 PM 43.8528 -104.1067 253° West 343 395 18,700 1,161 Climbing Denver Center
Sat 02:52:43 PM 43.8197 -104.2564 253° West 354 407 20,000 1,073 Climbing Denver Center
Sat 02:53:45 PM 43.7908 -104.3875 253° West 363 418 20,900 968 Climbing Denver Center
Sat 02:54:47 PM 43.7569 -104.5428 253° West 371 427 22,000 919 Climbing Denver Center
Sat 02:55:49 PM 43.7269 -104.6797 253° West 382 440 22,800 726 Climbing Denver Center
Sat 02:56:51 PM 43.6911 -104.8383 253° West 384 442 23,500 677 Climbing Denver Center
Sat 02:57:53 PM 43.6597 -104.9764 253° West 390 449 24,200 774 Climbing Denver Center
Sat 02:58:55 PM 43.6231 -105.1400 253° West 396 456 25,100 465 Climbing Denver Center
Sat 03:08:12 PM 43.2942 -106.5292 252° West 422 486 29,000 426 Climbing Denver Center
Sat 03:09:14 PM 43.2586 -106.6750 252° West 422 486 29,500 505 Climbing Denver Center
Sat 03:09:47 PM 43.2339 -106.7722 251° West 422 486 29,800 500 Climbing Salt Lake Center
Sat 03:10:50 PM 43.2000 -106.9139 252° West 416 479 30,300 528 Climbing Salt Lake Center
Sat 03:11:52 PM 43.1619 -107.0653 251° West 417 480 30,900 823 Climbing Salt Lake Center
Sat 03:12:54 PM 43.1258 -107.2083 251° West 406 467 32,000 532 Climbing Salt Lake Center
Sat 03:13:56 PM 43.0817 -107.3800 251° West 400 460 32,000  Level Salt Lake Center
Sat 03:14:58 PM 43.0447 -107.5272 251° West 407 468 32,000  Level Salt Lake Center
Sat 03:16:00 PM 43.0069 -107.6769 251° West 413 475 32,000  Level Salt Lake Center
Sat 03:17:02 PM 42.9672 -107.8258 250° West 416 479 32,000  Level Salt Lake Center
Sat 03:18:04 PM 42.9286 -107.9825 251° West 421 484 32,000  Level Salt Lake Center
Sat 03:19:06 PM 42.8842 -108.1497 250° West 423 487 32,000  Level Salt Lake Center
Sat 03:20:08 PM 42.8456 -108.2964 250° West 425 489 32,000  Level Salt Lake Center
Sat 03:21:10 PM 42.8014 -108.4686 251° West 429 494 32,000  Level Salt Lake Center
Sat 03:22:12 PM 42.7622 -108.6150 250° West 430 495 32,000  Level Salt Lake Center
Sat 03:23:14 PM 42.7156 -108.7872 250° West 433 498 32,000  Level Salt Lake Center
Sat 03:24:16 PM 42.6764 -108.9339 250° West 433 498 32,000  Level Salt Lake Center
Sat 03:25:18 PM 42.6306 -109.1031 250° West 433 498 32,000  Level Salt Lake Center
Sat 03:26:20 PM 42.5906 -109.2497 250° West 433 498 32,000  Level Salt Lake Center
Sat 03:27:22 PM 42.5436 -109.4233 250° West 437 503 32,000  Level Salt Lake Center
Sat 03:28:24 PM 42.5033 -109.5692 250° West 437 503 32,000  Level Salt Lake Center
Sat 03:29:26 PM 42.4556 -109.7411 249° West 437 503 32,000 -192 Level Salt Lake Center
Sat 03:30:29 PM 42.4139 -109.8875 249° West 437 503 31,600 -624 Descending Salt Lake Center
Sat 03:31:31 PM 42.3647 -110.0642 249° West 449 517 30,700 -774 Descending Salt Lake Center
Sat 03:32:33 PM 42.3200 -110.2211 249° West 461 531 30,000 -339 Descending Salt Lake Center
Sat 03:33:35 PM 42.2692 -110.4014 249° West 462 532 30,000  Level Salt Lake Center
Sat 03:34:37 PM 42.2258 -110.5531 249° West 459 528 30,000  Level Salt Lake Center
Sat 03:35:39 PM 42.1450 -110.7044 234° Southwest 452 520 30,000  Level Salt Lake Center
Sat 03:36:41 PM 42.0722 -110.8331 233° Southwest 448 516 30,000  Level Salt Lake Center
Sat 03:37:43 PM 41.9919 -110.9694 232° Southwest 449 517 30,000  Level Salt Lake Center
Sat 03:38:45 PM 41.9139 -111.1000 231° Southwest 449 517 30,000  Level Salt Lake Center
Sat 03:39:48 PM 41.8592 -111.2508 244° Southwest 449 517 30,000 -816 Level Salt Lake Center
Sat 03:40:50 PM 41.8031 -111.4025 244° Southwest 456 525 28,300 -2,032 Descending Salt Lake Center
Sat 03:41:52 PM 41.7364 -111.5844 244° Southwest 457 526 25,800 -2,419 Descending Salt Lake Center
Sat 03:42:54 PM 41.6794 -111.7319 243° Southwest 452 520 23,300 -2,480 Descending Salt Lake Center
Sat 03:43:07 PM 41.6644 -111.7639 238° Southwest 447 514 22,700 -2,323 Descending Salt Lake Center
Sat 03:43:56 PM 41.6097 -111.8636 234° Southwest 452 520 20,900 -2,323 Descending Salt Lake Center
Sat 03:44:09 PM 41.5808 -111.8761 198° South 436 502 20,300 -1,935 Descending Salt Lake Center
Sat 03:44:58 PM 41.4994 -111.9267 205° Southwest 433 498 18,900 -2,182 Descending Salt Lake Center
Sat 03:45:15 PM 41.4544 -111.9456 197° South 421 484 17,900 -2,032 Descending Salt Lake Center
Sat 03:46:00 PM 41.3922 -111.9831 204° Southwest 420 483 16,800 -2,066 Descending Salt Lake Center
Sat 03:46:16 PM 41.3472 -112.0025 198° South 413 475 15,800 -1,742 Descending Salt Lake Center
Sat 03:47:02 PM 41.2706 -112.0475 204° Southwest 393 452 15,000 -787 Descending Salt Lake Center
Sat 03:47:17 PM 41.2500 -112.0558 197° South 369 425 15,000 -95 Level Salt Lake Center
Sat 03:48:05 PM 41.1797 -112.0942 202° Southwest 356 410 14,900 -295 Descending Salt Lake Center
Sat 03:48:18 PM 41.1581 -112.1042 199° South 344 396 14,700 -1,161 Descending Salt Lake Center
Sat 03:49:07 PM 41.0908 -112.1400 202° Southwest 350 403 13,700 -1,667 Descending Salt Lake Center
Sat 03:49:30 PM 41.0444 -112.1397 180° South 344 396 12,700 -1,839 Descending Salt Lake Center
Sat 03:50:09 PM 40.9981 -112.1300 171° South 340 391 11,800 -1,010 Descending Salt Lake Center
Sat 03:51:11 PM 40.8894 -112.1081 171° South 336 387 11,000 -387 Descending Salt Lake Center
Sat 03:52:13 PM 40.8117 -112.0994 175° South 274 315 11,000 -726 Level Salt Lake Center
Sat 03:53:15 PM 40.7414 -112.0911 175° South 257 296 9,500 -1,122 Descending Salt Lake Center
Sat 03:54:16 PM 40.6681 -112.0858 177° South 239 275 8,700 -1,230 Descending Salt Lake Center
Sat 03:55:17 PM 40.6531 -112.0089 104° East 225 259 7,000 -1,448 Descending Salt Lake Center
Sat 03:56:12 PM 40.6969 -111.9911 17° North 190 219 5,900 -1,200 Descending Salt Lake Center
Sat 03:56:22 PM 40.7072 -111.9878 14° North 187 215 5,700 -984 Descending Salt Lake Center
Sat 03:57:13 PM 40.7431 -111.9953 351° North 140 161 4,900 -871 Descending Salt Lake Center
Sat 03:57:24 PM 40.7486 -111.9928 19° North 152 175 4,800 -575 Descending Salt Lake Center
Sat 03:58:26 PM 40.7878 -111.9972 355° North 144 166 4,200 -581 Descending Salt Lake Center

Login

Don't have an account? Register now (free) for customized features, flight alerts, and more!